OAKBOAJL

Guest
Details From OAKB - Kabul Intl
To OAJL - JALALABAD
Flight Number -
Tags decoded
Created
Modified
Stats Distance 65 nm / 120 km
Max Altitude 0 ft / 0 m
Waypoints 4
Social Downloads 1
Likes 0
Share VATSIM

Download

Looking for another format? Having issues loading an existing format? Contact us
Advertisement - Login to hide

Notes

Requested: OAKB LEELO LANNI OAJL

Route

OAKB LEELO LANNI OAJL

ID Type Via Altitude Latitude Longitude Leg Dist Tot Dist Heading (true) Name
O OAKB APT - 0 ft / 0 m 34.56587˚ 69.21229˚ - 0 nm - Kabul Intl
LEELO FIX - 0 ft / 0 m 34.47705˚ 69.55490˚ 17 nm 17 nm 107° / 108° -
LANNI FIX - 0 ft / 0 m 34.43128˚ 69.83779˚ 14 nm 32 nm 101° / 101° -
O OAJL APT - 0 ft / 0 m 34.39984˚ 70.49863˚ 32 nm 64 nm 93° / 93° JALALABAD

Altitude Profile

Advertisement - Login to hide

OAKB

Details ICAO OAKB (KBL)
Name Kabul Intl
Region Afghanistan
Timezone Asia/Kabul (UTC+4.5)
Stats Elevation 5,877 ft / 1,791 m (AMSL)
Location 34.565875° 69.212289°
Runways 1
Magnetic Variation 3.164° E

METAR

OAKB 161650Z 34006KT 2000 1200S FU NSC M01/M07 Q1030 NOSIG RMK A3043 YLO YLO

Decode

TAF

TAF OAKB 160505Z 1606/1706 VRB02KT 4000 HZ NSC BECMG 1607/1609 7000 SCT100 BECMG 1613/1615 VRB02KT 1800 FU BECMG 1620/1622 4000 BR BECMG 1702/1704 2500 HZ FU

Decode

Departure Runways

ID Width Length Bearing (true) Bearing (mag) Surface Threshold Offset Overrun Length
11 164 ft / 50 m 11,483 ft / 3,500 m 107.39° 104.23° Asphalt 0 ft / 0 m 144 ft / 44 m
29 164 ft / 50 m 11,483 ft / 3,500 m 287.41° 284.25° Asphalt 0 ft / 0 m 190 ft / 58 m

OAJL

Details ICAO OAJL (JAA)
Name JALALABAD
Region Afghanistan
Timezone Asia/Kabul (UTC+4.5)
Stats Elevation 1,814 ft / 553 m (AMSL)
Location 34.399840° 70.498625°
Runways 1
Magnetic Variation 3.023° E

METAR

OAJL 161655Z 30002KT 6000 BR FEW180 06/03 A3036 RMK AO2A SLP287 T00630027

Decode

TAF

TAF OAJL 161609Z 1616/1722 VRB06KT 8000 HZ FEW200 QNH3030INS BECMG 1708/1709 24006KT 9999 NSW FEW100 SCT130 QNH3028INS BECMG 1713/1714 24006KT 8000 HZ FEW090 SCT110 QNH3030INS TX14/1708Z TN04/1619Z

Decode

Destination Runways

ID Width Length Bearing (true) Bearing (mag) Surface Threshold Offset Overrun Length
13 148 ft / 45 m 7,263 ft / 2,214 m 131.57° 128.55° Asphalt 0 ft / 0 m 0 ft / 0 m
31 148 ft / 45 m 7,263 ft / 2,214 m 311.58° 308.56° Asphalt 0 ft / 0 m 0 ft / 0 m

Popular Alternatives